createdAt,value
2019-04-20T00:00:36.346Z,40.20
2019-04-20T00:02:59.706Z,40.40
2019-04-20T00:05:25.579Z,39.70
2019-04-20T00:07:52.225Z,39.70
2019-04-20T00:10:23.075Z,40.00
2019-04-20T00:15:17.558Z,40.00
2019-04-20T00:17:51.200Z,40.00
2019-04-20T00:20:20.092Z,39.70
2019-04-20T00:22:48.639Z,40.40
2019-04-20T00:25:42.953Z,39.90
2019-04-20T00:28:25.204Z,39.70
2019-04-20T00:30:54.434Z,40.30
2019-04-20T00:33:14.738Z,40.20
2019-04-20T00:35:31.375Z,39.90
2019-04-20T00:40:25.824Z,39.70
2019-04-20T00:42:55.149Z,39.90
2019-04-20T00:45:25.833Z,39.70
2019-04-20T00:47:57.312Z,40.20
2019-04-20T00:53:00.833Z,39.90
2019-04-20T01:00:25.913Z,39.70
2019-04-20T01:05:27.605Z,39.70
2019-04-20T01:07:54.686Z,39.60
2019-04-20T01:10:19.671Z,39.70
2019-04-20T01:17:44.167Z,40.10
2019-04-20T01:20:12.125Z,39.70
2019-04-20T01:22:44.588Z,39.70
2019-04-20T01:25:15.152Z,39.70
2019-04-20T01:35:22.085Z,39.60
2019-04-20T01:40:04.431Z,39.60
2019-04-20T01:42:30.062Z,40.10
2019-04-20T01:44:57.380Z,39.60
2019-04-20T01:47:32.331Z,40.20
2019-04-20T01:49:59.727Z,40.30
2019-04-20T01:52:29.657Z,39.60
2019-04-20T01:55:17.987Z,39.60
2019-04-20T01:57:44.936Z,39.50
2019-04-20T02:00:24.437Z,40.10
2019-04-20T02:02:58.699Z,39.90
2019-04-20T02:05:27.357Z,39.90
2019-04-20T02:07:52.179Z,39.50
2019-04-20T02:10:20.347Z,39.50
2019-04-20T02:20:35.961Z,40.60
2019-04-20T02:22:55.081Z,40.00
2019-04-20T02:25:12.186Z,39.90
2019-04-20T02:27:48.186Z,39.70
2019-04-20T02:30:40.631Z,39.80
2019-04-20T02:33:21.650Z,39.70
2019-04-20T02:40:56.853Z,39.40
2019-04-20T02:43:43.224Z,39.40
2019-04-20T02:45:50.521Z,39.40
2019-04-20T02:50:52.905Z,39.40
2019-04-20T02:53:20.351Z,39.40
2019-04-20T02:55:55.813Z,39.90
2019-04-20T03:02:58.223Z,39.50
2019-04-20T03:05:27.836Z,39.40
2019-04-20T03:08:02.595Z,39.90
2019-04-20T03:10:34.325Z,39.90
2019-04-20T03:13:04.085Z,39.40
2019-04-20T03:15:32.789Z,39.40
2019-04-20T03:18:00.102Z,40.00
2019-04-20T03:20:29.872Z,40.20
2019-04-20T03:23:18.292Z,39.40
2019-04-20T03:25:48.391Z,39.90
2019-04-20T03:28:15.544Z,40.20
2019-04-20T03:31:33.749Z,39.40
2019-04-20T03:33:41.359Z,39.40
2019-04-20T03:36:05.704Z,40.10
2019-04-20T03:38:14.715Z,39.40
2019-04-20T03:40:44.392Z,39.40
2019-04-20T03:42:54.881Z,40.00
2019-04-20T03:45:23.638Z,39.50
2019-04-20T03:48:02.247Z,39.40
2019-04-20T03:55:41.901Z,39.40
2019-04-20T03:58:14.916Z,40.00
2019-04-20T04:00:41.187Z,39.60
2019-04-20T04:06:03.686Z,39.30
2019-04-20T04:08:29.844Z,39.30
2019-04-20T04:11:06.626Z,39.90
2019-04-20T04:15:52.279Z,40.00
2019-04-20T04:18:23.002Z,40.20
2019-04-20T04:20:52.047Z,39.90
2019-04-20T04:23:32.310Z,40.20
2019-04-20T04:25:59.376Z,39.40
2019-04-20T04:30:59.794Z,39.40
2019-04-20T04:33:46.021Z,39.40
2019-04-20T04:35:55.224Z,39.70
2019-04-20T04:38:28.950Z,39.90
2019-04-20T04:41:04.943Z,39.50
2019-04-20T04:43:19.893Z,39.50
2019-04-20T04:45:33.268Z,39.50
2019-04-20T04:47:59.813Z,39.50
2019-04-20T04:50:29.881Z,39.80
2019-04-20T04:53:02.521Z,40.00
2019-04-20T04:55:32.741Z,40.10
2019-04-20T05:00:25.823Z,40.10
2019-04-20T05:02:53.895Z,40.40
2019-04-20T05:05:44.725Z,39.60
2019-04-20T05:08:02.756Z,39.90
2019-04-20T05:10:22.316Z,39.80
2019-04-20T05:12:51.274Z,39.70
2019-04-20T05:15:33.671Z,40.20
2019-04-20T05:18:05.817Z,40.20
2019-04-20T05:20:41.611Z,39.60
2019-04-20T05:23:06.893Z,40.40
2019-04-20T05:25:59.608Z,39.70
2019-04-20T05:28:27.606Z,40.00
2019-04-20T05:30:54.623Z,39.50
2019-04-20T05:33:27.857Z,39.50
2019-04-20T05:36:05.620Z,40.10
2019-04-20T05:38:45.758Z,39.80
2019-04-20T05:41:01.687Z,39.90
2019-04-20T05:43:33.538Z,39.50
2019-04-20T05:45:56.539Z,39.40
2019-04-20T05:51:00.012Z,39.40
2019-04-20T05:53:34.301Z,40.00
2019-04-20T05:55:54.672Z,40.20
2019-04-20T06:01:00.210Z,39.40
2019-04-20T06:03:20.325Z,39.30
2019-04-20T06:05:59.406Z,39.60
2019-04-20T06:08:32.070Z,39.20
2019-04-20T06:10:52.226Z,39.20
2019-04-20T06:13:30.005Z,39.20
2019-04-20T06:16:03.902Z,40.50
2019-04-20T06:18:29.915Z,39.10
2019-04-20T06:21:16.753Z,39.10
2019-04-20T06:26:28.117Z,39.80
2019-04-20T06:28:35.342Z,38.80
2019-04-20T06:31:10.757Z,39.40
2019-04-20T06:34:19.986Z,38.70
2019-04-20T06:36:43.139Z,38.70
2019-04-20T06:41:46.601Z,38.10
2019-04-20T06:44:02.172Z,37.90
2019-04-20T06:46:31.947Z,37.60
2019-04-20T06:48:58.705Z,37.60
2019-04-20T06:51:27.685Z,37.20
2019-04-20T06:54:08.177Z,36.10
2019-04-20T06:56:49.965Z,34.80
2019-04-20T06:59:21.101Z,33.40
2019-04-20T07:01:48.910Z,31.70
2019-04-20T07:04:37.681Z,31.00
2019-04-20T07:06:54.895Z,30.10
2019-04-20T07:09:15.243Z,29.50
2019-04-20T07:11:34.332Z,28.90
2019-04-20T07:13:54.409Z,28.80
2019-04-20T07:16:55.704Z,28.40
2019-04-20T07:19:24.128Z,27.60
2019-04-20T07:22:02.228Z,27.10
2019-04-20T07:24:28.883Z,26.70
2019-04-20T07:29:28.203Z,25.90
2019-04-20T07:31:43.314Z,26.80
2019-04-20T07:34:15.709Z,27.60
2019-04-20T07:36:54.031Z,28.60
2019-04-20T07:41:47.830Z,26.40
2019-04-20T07:44:10.164Z,25.30
2019-04-20T07:46:46.874Z,24.40
2019-04-20T07:49:07.668Z,23.80
2019-04-20T07:51:23.051Z,24.10
2019-04-20T07:54:10.652Z,26.00
2019-04-20T07:56:30.563Z,27.80
2019-04-20T08:01:54.804Z,29.80
2019-04-20T08:09:08.320Z,32.10
2019-04-20T08:11:41.316Z,32.80
2019-04-20T08:14:12.627Z,33.20
2019-04-20T08:16:46.677Z,33.60
2019-04-20T08:19:05.214Z,34.30
2019-04-20T08:21:39.125Z,34.10
2019-04-20T08:24:05.029Z,35.40
2019-04-20T08:26:18.269Z,34.60
2019-04-20T08:28:50.770Z,34.70
2019-04-20T08:41:25.096Z,35.50
2019-04-20T08:43:58.955Z,35.60
2019-04-20T08:46:25.190Z,35.60
2019-04-20T08:48:57.122Z,36.40
2019-04-20T08:53:51.853Z,36.30
2019-04-20T08:56:17.292Z,35.90
2019-04-20T08:58:29.625Z,36.60
2019-04-20T09:01:00.203Z,36.00
2019-04-20T09:03:32.565Z,37.00
2019-04-20T09:06:03.224Z,36.20
2019-04-20T09:08:28.063Z,36.80
2019-04-20T09:13:27.584Z,37.40
2019-04-20T09:18:34.448Z,36.60
2019-04-20T09:21:04.305Z,37.50
2019-04-20T09:23:42.404Z,36.70
2019-04-20T09:31:18.510Z,36.90
2019-04-20T09:33:48.583Z,37.40
2019-04-20T09:36:19.635Z,36.90
2019-04-20T09:39:00.131Z,37.60
2019-04-20T09:41:47.099Z,37.30
2019-04-20T09:43:56.078Z,37.60
2019-04-20T09:46:24.272Z,37.00
2019-04-20T09:51:37.657Z,37.30
2019-04-20T09:53:58.833Z,37.30
2019-04-20T09:59:01.114Z,37.20
2019-04-20T10:01:22.695Z,37.50
2019-04-20T10:03:40.845Z,37.20
2019-04-20T10:06:07.901Z,37.70
2019-04-20T10:08:40.432Z,37.30
2019-04-20T10:11:03.425Z,37.30
2019-04-20T10:13:30.185Z,37.70
2019-04-20T10:15:57.718Z,37.50
2019-04-20T10:18:24.263Z,37.50
2019-04-20T10:20:51.576Z,38.00
2019-04-20T10:23:18.548Z,37.60
2019-04-20T10:25:46.730Z,38.20
2019-04-20T10:28:13.870Z,38.10
2019-04-20T10:30:40.885Z,38.10
2019-04-20T10:35:34.092Z,37.80
2019-04-20T10:38:05.406Z,38.00
2019-04-20T10:40:43.257Z,38.20
2019-04-20T10:43:01.532Z,37.70
2019-04-20T10:45:28.848Z,38.70
2019-04-20T10:50:25.102Z,37.90
2019-04-20T10:52:51.979Z,37.90
2019-04-20T10:55:18.817Z,38.00
2019-04-20T10:57:45.854Z,38.00
2019-04-20T11:02:44.202Z,38.60
2019-04-20T11:05:09.122Z,38.00
2019-04-20T11:07:36.596Z,38.10
2019-04-20T11:10:14.732Z,38.10
2019-04-20T11:12:34.578Z,38.30
2019-04-20T11:15:00.951Z,38.60
2019-04-20T11:17:29.782Z,38.20
2019-04-20T11:19:57.093Z,38.20
2019-04-20T11:22:24.157Z,38.30
2019-04-20T11:24:52.365Z,38.60
2019-04-20T11:27:20.443Z,38.20
2019-04-20T11:29:46.680Z,38.30
2019-04-20T11:32:14.204Z,38.50
2019-04-20T11:39:39.014Z,38.40
2019-04-20T11:42:07.764Z,38.30
2019-04-20T11:44:35.414Z,38.40
2019-04-20T11:47:04.157Z,38.50
2019-04-20T11:49:31.295Z,38.60
2019-04-20T11:51:57.836Z,38.50
2019-04-20T11:54:24.317Z,38.70
2019-04-20T11:56:51.230Z,38.60
2019-04-20T11:59:18.962Z,38.50
2019-04-20T12:01:54.484Z,38.50
2019-04-20T12:04:41.471Z,38.90
2019-04-20T12:06:59.275Z,38.60
2019-04-20T12:09:26.299Z,38.90
2019-04-20T12:12:04.178Z,38.70
2019-04-20T12:14:20.847Z,38.90
2019-04-20T12:16:47.828Z,38.60
2019-04-20T12:19:14.720Z,38.60
2019-04-20T12:21:42.168Z,38.70
2019-04-20T12:24:10.076Z,38.70
2019-04-20T12:26:36.971Z,39.30
2019-04-20T12:29:04.040Z,39.00
2019-04-20T12:33:58.128Z,38.70
2019-04-20T12:36:25.956Z,38.90
2019-04-20T12:38:53.146Z,38.80
2019-04-20T12:41:31.980Z,38.70
2019-04-20T12:43:49.732Z,38.80
2019-04-20T12:46:18.909Z,38.80
2019-04-20T12:48:44.723Z,39.20
2019-04-20T12:51:11.392Z,39.00
2019-04-20T12:56:08.578Z,38.80
2019-04-20T12:58:36.587Z,38.80
2019-04-20T13:01:06.534Z,38.80
2019-04-20T13:03:33.332Z,38.80
2019-04-20T13:05:59.531Z,39.00
2019-04-20T13:08:33.840Z,38.30
2019-04-20T13:13:48.655Z,31.20
2019-04-20T13:16:16.646Z,29.30
2019-04-20T13:18:45.432Z,29.30
2019-04-20T13:21:13.274Z,32.50
2019-04-20T13:23:40.629Z,30.00
2019-04-20T13:26:09.281Z,30.60
2019-04-20T13:28:37.071Z,28.80
2019-04-20T13:31:04.006Z,27.60
2019-04-20T13:33:31.484Z,28.20
2019-04-20T13:35:58.543Z,27.70
2019-04-20T13:38:25.916Z,27.70
2019-04-20T13:40:53.406Z,27.60
2019-04-20T13:43:20.088Z,29.10
2019-04-20T13:45:46.865Z,27.80
2019-04-20T13:48:15.002Z,26.40
2019-04-20T13:50:42.278Z,28.20
2019-04-20T14:00:55.497Z,27.00
2019-04-20T14:05:51.392Z,27.60
2019-04-20T14:08:21.348Z,31.60
2019-04-20T14:10:47.407Z,29.20
2019-04-20T14:18:11.046Z,32.90
2019-04-20T14:20:38.182Z,33.00
2019-04-20T14:23:05.296Z,32.80
2019-04-20T14:25:33.186Z,32.60
2019-04-20T14:28:00.723Z,32.40
2019-04-20T14:30:26.978Z,32.30
2019-04-20T14:32:54.616Z,32.10
2019-04-20T14:37:49.907Z,32.90
2019-04-20T14:40:18.710Z,32.80
2019-04-20T14:42:49.970Z,32.80
2019-04-20T14:45:14.552Z,32.80
2019-04-20T14:50:11.904Z,33.30
2019-04-20T14:52:38.068Z,33.00
2019-04-20T14:55:07.868Z,32.70
2019-04-20T14:57:35.282Z,33.10
2019-04-20T15:00:05.503Z,33.00
2019-04-20T15:02:32.155Z,33.50
2019-04-20T15:04:59.053Z,34.00
2019-04-20T15:07:26.674Z,33.90
2019-04-20T15:09:54.978Z,33.70
2019-04-20T15:12:21.977Z,33.90
2019-04-20T15:17:17.351Z,33.50
2019-04-20T15:19:45.679Z,34.00
2019-04-20T15:22:31.701Z,33.30
2019-04-20T15:24:58.307Z,33.10
2019-04-20T15:27:24.641Z,33.30
2019-04-20T15:29:50.939Z,33.50
2019-04-20T15:32:17.002Z,33.50
2019-04-20T15:34:43.081Z,33.80
2019-04-20T15:37:09.990Z,33.80
2019-04-20T15:39:37.077Z,34.10
2019-04-20T15:42:03.379Z,34.30
2019-04-20T15:44:31.450Z,34.10
2019-04-20T15:46:59.392Z,34.20
2019-04-20T15:49:26.393Z,34.80
2019-04-20T15:54:19.735Z,34.60
2019-04-20T15:56:53.916Z,34.50
2019-04-20T15:59:16.696Z,34.20
2019-04-20T16:04:21.635Z,33.50
2019-04-20T16:06:45.278Z,34.20
2019-04-20T16:09:14.423Z,34.50
2019-04-20T16:11:41.335Z,34.50
2019-04-20T16:14:09.089Z,35.00
2019-04-20T16:19:11.967Z,34.80
2019-04-20T16:21:35.178Z,34.40
2019-04-20T16:24:01.935Z,34.60
2019-04-20T16:28:59.573Z,34.50
2019-04-20T16:31:26.828Z,34.50
2019-04-20T16:33:56.769Z,34.30
2019-04-20T16:36:22.865Z,34.40
2019-04-20T16:38:50.998Z,34.30
2019-04-20T16:41:18.190Z,34.10
2019-04-20T16:43:46.415Z,34.20
2019-04-20T16:48:42.159Z,34.20
2019-04-20T16:51:10.968Z,34.50
2019-04-20T16:53:39.492Z,34.50
2019-04-20T17:03:43.281Z,34.30
2019-04-20T17:05:56.312Z,34.60
2019-04-20T17:08:22.926Z,34.60
2019-04-20T17:10:49.751Z,34.30
2019-04-20T17:13:30.786Z,32.80
2019-04-20T17:15:45.740Z,33.70
2019-04-20T17:18:12.072Z,33.50
2019-04-20T17:20:38.972Z,33.90
2019-04-20T17:23:08.701Z,33.20
2019-04-20T17:25:34.478Z,33.50
2019-04-20T17:28:20.609Z,33.70
2019-04-20T17:33:30.483Z,33.00
2019-04-20T17:36:05.482Z,32.70
2019-04-20T17:38:34.736Z,31.90
2019-04-20T17:41:11.304Z,31.30
2019-04-20T17:46:00.526Z,32.00
2019-04-20T17:48:34.505Z,32.10
2019-04-20T17:51:15.368Z,32.20
2019-04-20T18:04:19.765Z,33.70
2019-04-20T18:06:41.961Z,33.70
2019-04-20T18:09:01.950Z,33.90
2019-04-20T18:11:21.683Z,33.70
2019-04-20T18:13:46.206Z,33.90
2019-04-20T18:16:40.641Z,34.70
2019-04-20T18:19:07.776Z,34.40
2019-04-20T18:24:00.440Z,35.20
2019-04-20T18:26:49.154Z,35.30
2019-04-20T18:29:16.585Z,35.30
2019-04-20T18:31:29.150Z,35.20
2019-04-20T18:34:00.718Z,35.40
2019-04-20T18:41:30.911Z,35.70
2019-04-20T18:43:55.918Z,35.80
2019-04-20T18:46:44.048Z,36.10
2019-04-20T18:49:04.845Z,36.70
2019-04-20T18:51:15.829Z,37.60
2019-04-20T18:53:46.016Z,36.70
2019-04-20T18:58:37.891Z,37.40
2019-04-20T19:01:05.316Z,37.80
2019-04-20T19:03:35.735Z,39.40
2019-04-20T19:06:00.148Z,40.60
2019-04-20T19:08:35.237Z,40.40
2019-04-20T19:11:03.235Z,40.80
2019-04-20T19:13:44.597Z,40.60
2019-04-20T19:16:28.446Z,40.80
2019-04-20T19:21:25.051Z,41.20
2019-04-20T19:23:59.836Z,40.70
2019-04-20T19:26:21.979Z,41.20
2019-04-20T19:28:53.908Z,40.60
2019-04-20T19:31:35.484Z,41.40
2019-04-20T19:34:07.285Z,41.40
2019-04-20T19:36:23.411Z,41.80
2019-04-20T19:38:52.356Z,42.10
2019-04-20T19:43:48.997Z,42.10
2019-04-20T19:48:45.049Z,42.20
2019-04-20T19:51:25.587Z,41.80
2019-04-20T19:56:09.654Z,42.20
2019-04-20T19:58:37.835Z,42.00
2019-04-20T20:00:57.727Z,42.00
2019-04-20T20:05:52.914Z,41.80
2019-04-20T20:08:23.503Z,41.70
2019-04-20T20:10:48.319Z,42.10
2019-04-20T20:13:18.208Z,42.20
2019-04-20T20:15:45.537Z,41.90
2019-04-20T20:23:10.170Z,41.00
2019-04-20T20:25:42.637Z,40.70
2019-04-20T20:30:48.178Z,40.50
2019-04-20T20:35:36.755Z,40.90
2019-04-20T20:38:01.101Z,40.20
2019-04-20T20:43:07.370Z,40.30
2019-04-20T20:45:31.896Z,40.20
2019-04-20T20:48:09.143Z,40.30
2019-04-20T20:50:42.687Z,40.00
2019-04-20T20:53:00.840Z,39.90
2019-04-20T20:55:28.800Z,40.20
2019-04-20T21:02:50.820Z,40.30
2019-04-20T21:05:13.631Z,40.00
2019-04-20T21:07:40.568Z,39.80
2019-04-20T21:10:08.607Z,39.70
2019-04-20T21:15:10.639Z,39.50
2019-04-20T21:17:49.214Z,40.30
2019-04-20T21:20:20.193Z,39.50
2019-04-20T21:22:57.454Z,39.50
2019-04-20T21:27:48.706Z,39.70
2019-04-20T21:30:21.710Z,39.80
2019-04-20T21:42:44.337Z,40.20
2019-04-20T21:45:14.897Z,39.30
2019-04-20T21:52:40.800Z,39.10
2019-04-20T21:55:06.025Z,39.30
2019-04-20T21:57:42.116Z,39.20
2019-04-20T22:00:14.296Z,38.90
2019-04-20T22:04:57.636Z,39.00
2019-04-20T22:07:24.171Z,39.30
2019-04-20T22:09:53.284Z,39.30
2019-04-20T22:12:18.366Z,39.00
2019-04-20T22:19:48.887Z,38.90
2019-04-20T22:22:18.454Z,39.00
2019-04-20T22:24:51.994Z,38.80
2019-04-20T22:32:08.868Z,38.80
2019-04-20T22:36:58.235Z,38.80
2019-04-20T22:42:08.955Z,38.60
2019-04-20T22:49:45.123Z,38.60
2019-04-20T22:52:05.896Z,38.60
2019-04-20T22:54:43.692Z,39.00
2019-04-20T22:57:03.784Z,39.30
2019-04-20T22:59:23.317Z,39.40
2019-04-20T23:01:53.583Z,38.50
2019-04-20T23:04:17.040Z,39.30
2019-04-20T23:06:48.142Z,38.50
2019-04-20T23:09:14.696Z,38.40
2019-04-20T23:14:08.703Z,38.50
2019-04-20T23:16:43.283Z,38.70
2019-04-20T23:21:32.116Z,39.20
2019-04-20T23:24:03.816Z,39.00
2019-04-20T23:26:33.484Z,38.30
2019-04-20T23:28:57.747Z,38.30
2019-04-20T23:31:26.636Z,39.10
2019-04-20T23:33:52.047Z,38.60
2019-04-20T23:36:26.681Z,39.00
2019-04-20T23:38:49.044Z,38.20
2019-04-20T23:41:15.492Z,38.30
2019-04-20T23:43:45.170Z,39.70
2019-04-20T23:46:17.242Z,38.20
2019-04-20T23:51:52.506Z,39.30
2019-04-20T23:54:07.253Z,38.30
2019-04-20T23:58:56.228Z,38.00
